Time;durP1;ratioP1;P1;durP2;ratioP2;P2;SDS_P1;SDS_P2;PMS_P1;PMS_P2;Temp;Humidity;BMP_temperature;BMP_pressure;BME280_temperature;BME280_humidity;BME280_pressure;Samples;Min_cycle;Max_cycle;Signal;HPM_P1;HPM_P2
2023/12/25 00:01:05;;;;;;;1.38;0.20;;;;;;;;;;4974392;28;20531;-47
2023/12/25 00:03:33;;;;;;;1.20;0.30;;;;;;;;;;4972214;28;20517;-47
2023/12/25 00:06:14;;;;;;;1.40;0.30;;;;;;;;;;4974210;28;20117;-48
2023/12/25 00:08:42;;;;;;;1.45;0.30;;;;;;;;;;4977108;28;20082;-48
2023/12/25 00:11:14;;;;;;;1.83;0.30;;;;;;;;;;4971322;28;20832;-48
2023/12/25 00:13:42;;;;;;;1.45;0.20;;;;;;;;;;4965105;28;20034;-47
2023/12/25 00:16:10;;;;;;;1.47;0.20;;;;;;;;;;4985225;28;20061;-47
2023/12/25 00:18:38;;;;;;;1.48;0.22;;;;;;;;;;4966268;28;20046;-47
2023/12/25 00:21:06;;;;;;;1.90;0.30;;;;;;;;;;4983666;28;20046;-48
2023/12/25 00:23:34;;;;;;;1.40;0.20;;;;;;;;;;4969424;28;20373;-47
2023/12/25 00:26:02;;;;;;;1.23;0.20;;;;;;;;;;4977902;28;20044;-49
2023/12/25 00:28:31;;;;;;;1.40;0.20;;;;;;;;;;4967206;28;20053;-47
2023/12/25 00:31:16;;;;;;;1.58;0.30;;;;;;;;;;4903505;28;20046;-48
2023/12/25 00:33:44;;;;;;;1.30;0.20;;;;;;;;;;4981128;28;20037;-48
2023/12/25 00:36:13;;;;;;;1.60;0.30;;;;;;;;;;4971723;28;20133;-48
2023/12/25 00:38:42;;;;;;;1.63;0.28;;;;;;;;;;4985401;28;20136;-48
2023/12/25 00:41:10;;;;;;;1.27;0.30;;;;;;;;;;4969077;28;20131;-47
2023/12/25 00:43:39;;;;;;;1.80;0.30;;;;;;;;;;4973819;28;20364;-47
2023/12/25 00:46:07;;;;;;;1.73;0.35;;;;;;;;;;4975920;28;20104;-47
2023/12/25 00:48:34;;;;;;;1.50;0.30;;;;;;;;;;4965453;28;20045;-48
2023/12/25 00:51:02;;;;;;;1.33;0.30;;;;;;;;;;4981257;28;20053;-50
2023/12/25 00:53:30;;;;;;;1.90;0.30;;;;;;;;;;4971535;28;20056;-48
2023/12/25 00:56:02;;;;;;;1.35;0.25;;;;;;;;;;4989184;28;20034;-49
2023/12/25 00:58:30;;;;;;;1.85;0.32;;;;;;;;;;4983398;28;20046;-51
2023/12/25 01:00:59;;;;;;;1.48;0.30;;;;;;;;;;4975913;28;20038;-47
2023/12/25 01:03:29;;;;;;;1.42;0.30;;;;;;;;;;4974030;28;20937;-47
2023/12/25 01:05:56;;;;;;;2.00;0.30;;;;;;;;;;4973000;28;20425;-46
2023/12/25 01:08:24;;;;;;;1.95;0.40;;;;;;;;;;4982581;28;20041;-48
2023/12/25 01:10:52;;;;;;;1.55;0.30;;;;;;;;;;4976542;28;20046;-48
2023/12/25 01:13:21;;;;;;;1.60;0.40;;;;;;;;;;4979952;28;20103;-49
2023/12/25 01:15:49;;;;;;;1.50;0.30;;;;;;;;;;4975116;28;20030;-45
2023/12/25 01:18:18;;;;;;;1.40;0.23;;;;;;;;;;4976549;28;20469;-47
2023/12/25 01:20:46;;;;;;;1.55;0.30;;;;;;;;;;4973942;28;20714;-49
2023/12/25 01:23:15;;;;;;;1.60;0.30;;;;;;;;;;4977788;28;20050;-48
2023/12/25 01:25:43;;;;;;;1.60;0.30;;;;;;;;;;4980287;28;20050;-48
2023/12/25 01:28:10;;;;;;;1.13;0.20;;;;;;;;;;4966973;28;20033;-48
2023/12/25 01:30:38;;;;;;;2.40;0.23;;;;;;;;;;4907340;28;20140;-46
2023/12/25 01:33:06;;;;;;;1.38;0.30;;;;;;;;;;4974189;28;20049;-49
2023/12/25 01:35:35;;;;;;;1.52;0.40;;;;;;;;;;4966712;28;20042;-48
2023/12/25 01:38:07;;;;;;;2.25;0.43;;;;;;;;;;4980558;28;20041;-49
2023/12/25 01:40:36;;;;;;;1.60;0.30;;;;;;;;;;4973265;28;20744;-46
2023/12/25 01:43:04;;;;;;;1.70;0.40;;;;;;;;;;4977921;28;20057;-48
2023/12/25 01:45:31;;;;;;;1.65;0.30;;;;;;;;;;4969811;28;20065;-48
2023/12/25 01:47:59;;;;;;;1.30;0.20;;;;;;;;;;4978038;28;20038;-52
2023/12/25 01:50:28;;;;;;;1.75;0.32;;;;;;;;;;4986387;28;20045;-48
2023/12/25 01:52:58;;;;;;;1.35;0.30;;;;;;;;;;4970432;28;20061;-47
2023/12/25 01:55:25;;;;;;;1.50;0.20;;;;;;;;;;4986799;28;20085;-49
2023/12/25 01:57:53;;;;;;;2.25;0.30;;;;;;;;;;4964939;28;20993;-50
2023/12/25 02:00:21;;;;;;;1.40;0.30;;;;;;;;;;4979540;28;20041;-48
2023/12/25 02:02:49;;;;;;;1.30;0.30;;;;;;;;;;4967762;28;20046;-48
2023/12/25 02:05:18;;;;;;;1.58;0.30;;;;;;;;;;4990338;28;20077;-50
2023/12/25 02:07:47;;;;;;;2.10;0.30;;;;;;;;;;4966115;28;20100;-47
2023/12/25 02:10:27;;;;;;;2.33;0.32;;;;;;;;;;4984272;28;20053;-46
2023/12/25 02:12:55;;;;;;;3.42;0.30;;;;;;;;;;4983884;28;20057;-50
2023/12/25 02:15:23;;;;;;;1.90;0.25;;;;;;;;;;4973872;28;20049;-49
2023/12/25 02:17:51;;;;;;;1.13;0.20;;;;;;;;;;4984241;28;20052;-48
2023/12/25 02:20:20;;;;;;;1.37;0.30;;;;;;;;;;4973857;28;20759;-46
2023/12/25 02:22:48;;;;;;;1.52;0.25;;;;;;;;;;4980628;28;20051;-49
2023/12/25 02:25:25;;;;;;;2.30;0.35;;;;;;;;;;4970499;28;20048;-46
2023/12/25 02:27:54;;;;;;;1.30;0.20;;;;;;;;;;4986294;28;20742;-47
2023/12/25 02:30:22;;;;;;;1.10;0.20;;;;;;;;;;4900251;28;20046;-48
2023/12/25 02:32:50;;;;;;;1.90;0.30;;;;;;;;;;4975020;28;20037;-47
2023/12/25 02:35:21;;;;;;;1.48;0.20;;;;;;;;;;4968655;28;20046;-49
2023/12/25 02:37:49;;;;;;;1.90;0.20;;;;;;;;;;4977739;28;20563;-47
2023/12/25 02:40:18;;;;;;;1.75;0.30;;;;;;;;;;4966753;28;20068;-47
2023/12/25 02:42:45;;;;;;;1.50;0.20;;;;;;;;;;4969328;28;20053;-47
2023/12/25 02:45:15;;;;;;;1.53;0.20;;;;;;;;;;4953078;28;20053;-49
2023/12/25 02:47:43;;;;;;;2.15;0.20;;;;;;;;;;4986424;28;20038;-50
2023/12/25 02:50:11;;;;;;;2.42;0.30;;;;;;;;;;4960290;28;20042;-47
2023/12/25 02:52:39;;;;;;;1.10;0.20;;;;;;;;;;4957164;28;20049;-47
2023/12/25 02:55:07;;;;;;;1.42;0.30;;;;;;;;;;4979826;28;20587;-47
2023/12/25 02:57:38;;;;;;;1.00;0.20;;;;;;;;;;4972895;28;20054;-48
2023/12/25 03:00:06;;;;;;;1.50;0.20;;;;;;;;;;4986840;28;20508;-46
2023/12/25 03:02:36;;;;;;;1.30;0.28;;;;;;;;;;4973490;28;20065;-49
2023/12/25 03:05:08;;;;;;;1.38;0.25;;;;;;;;;;4977276;28;20506;-46
2023/12/25 03:07:38;;;;;;;1.40;0.30;;;;;;;;;;4980843;28;20046;-50
2023/12/25 03:10:07;;;;;;;1.20;0.20;;;;;;;;;;4972718;28;20065;-48
2023/12/25 03:12:35;;;;;;;1.20;0.20;;;;;;;;;;4967049;28;20575;-49
2023/12/25 03:15:02;;;;;;;1.50;0.30;;;;;;;;;;4987520;28;20034;-48
2023/12/25 03:17:30;;;;;;;1.35;0.25;;;;;;;;;;4968282;28;20505;-47
2023/12/25 03:19:59;;;;;;;2.28;0.38;;;;;;;;;;4978305;28;20644;-51
2023/12/25 03:22:29;;;;;;;1.57;0.30;;;;;;;;;;4976892;28;20793;-48
2023/12/25 03:24:58;;;;;;;1.13;0.20;;;;;;;;;;4984691;28;20069;-48
2023/12/25 03:27:35;;;;;;;1.38;0.20;;;;;;;;;;4973718;28;20042;-50
2023/12/25 03:30:03;;;;;;;1.60;0.30;;;;;;;;;;4869699;28;20045;-46
2023/12/25 03:32:30;;;;;;;2.80;0.30;;;;;;;;;;4981469;28;20045;-50
2023/12/25 03:35:00;;;;;;;1.40;0.20;;;;;;;;;;4977799;28;20046;-46
2023/12/25 03:37:28;;;;;;;2.63;0.40;;;;;;;;;;4979103;28;20771;-46
2023/12/25 03:39:57;;;;;;;1.35;0.25;;;;;;;;;;4955258;28;20745;-48
2023/12/25 03:42:25;;;;;;;1.73;0.20;;;;;;;;;;4992954;28;20417;-46
2023/12/25 03:44:52;;;;;;;1.08;0.20;;;;;;;;;;4974479;28;20046;-46
2023/12/25 03:47:20;;;;;;;1.00;0.20;;;;;;;;;;4975750;28;20057;-47
2023/12/25 03:49:48;;;;;;;1.60;0.25;;;;;;;;;;4967530;28;20589;-46
2023/12/25 03:52:17;;;;;;;1.25;0.20;;;;;;;;;;4991433;28;20046;-47
2023/12/25 03:54:45;;;;;;;1.65;0.32;;;;;;;;;;4969923;28;20054;-46
2023/12/25 03:57:12;;;;;;;1.48;0.30;;;;;;;;;;4980838;28;20840;-48
2023/12/25 03:59:40;;;;;;;1.60;0.30;;;;;;;;;;4970825;28;20038;-46
2023/12/25 04:02:07;;;;;;;1.73;0.30;;;;;;;;;;4977515;28;20042;-48
2023/12/25 04:04:35;;;;;;;2.67;0.20;;;;;;;;;;4980167;28;20045;-46
2023/12/25 04:07:03;;;;;;;3.65;0.40;;;;;;;;;;4979395;28;20046;-47
2023/12/25 04:09:32;;;;;;;1.45;0.30;;;;;;;;;;4960001;28;20042;-46
2023/12/25 04:12:00;;;;;;;1.40;0.30;;;;;;;;;;4983205;28;20484;-46
2023/12/25 04:14:28;;;;;;;2.55;0.30;;;;;;;;;;4975040;28;20050;-46
2023/12/25 04:16:55;;;;;;;2.85;0.40;;;;;;;;;;4970398;28;21680;-49
2023/12/25 04:19:23;;;;;;;3.80;0.50;;;;;;;;;;4978263;28;20288;-46
2023/12/25 04:21:51;;;;;;;2.28;0.30;;;;;;;;;;4980591;28;20048;-46
2023/12/25 04:24:19;;;;;;;5.23;0.53;;;;;;;;;;4973234;28;20042;-47
2023/12/25 04:26:48;;;;;;;2.40;0.30;;;;;;;;;;4970670;28;20049;-49
2023/12/25 04:29:16;;;;;;;3.58;0.40;;;;;;;;;;4937066;28;30642;-47
2023/12/25 04:31:44;;;;;;;3.25;0.20;;;;;;;;;;4947726;28;20133;-45
2023/12/25 04:34:14;;;;;;;3.45;0.40;;;;;;;;;;4974625;28;20308;-46
2023/12/25 04:36:42;;;;;;;2.40;0.30;;;;;;;;;;4971936;28;20045;-46
2023/12/25 04:39:11;;;;;;;2.17;0.35;;;;;;;;;;4978185;28;20050;-46
2023/12/25 04:41:38;;;;;;;2.88;0.40;;;;;;;;;;4971521;28;20045;-49
2023/12/25 04:44:08;;;;;;;3.20;0.43;;;;;;;;;;4980268;28;20066;-50
2023/12/25 04:46:35;;;;;;;3.05;0.40;;;;;;;;;;4975172;28;20573;-51
2023/12/25 04:49:04;;;;;;;3.77;0.37;;;;;;;;;;4988134;28;20041;-47
2023/12/25 04:51:39;;;;;;;2.40;0.43;;;;;;;;;;4976891;28;20034;-48
2023/12/25 04:54:07;;;;;;;3.45;0.55;;;;;;;;;;4982088;28;20049;-48
2023/12/25 04:56:35;;;;;;;2.85;0.50;;;;;;;;;;4978697;28;20064;-48
2023/12/25 04:59:03;;;;;;;3.05;0.60;;;;;;;;;;4974234;28;20042;-47
2023/12/25 05:01:36;;;;;;;3.20;0.60;;;;;;;;;;4991891;28;20038;-49
2023/12/25 05:04:06;;;;;;;6.38;0.40;;;;;;;;;;4986246;28;20073;-47
2023/12/25 05:06:34;;;;;;;2.58;0.30;;;;;;;;;;4970497;28;20045;-46
2023/12/25 05:09:02;;;;;;;2.15;0.30;;;;;;;;;;4988609;28;20037;-49
2023/12/25 05:11:30;;;;;;;2.08;0.40;;;;;;;;;;4976965;28;20149;-50
2023/12/25 05:13:58;;;;;;;3.20;0.30;;;;;;;;;;4989232;28;20038;-52
2023/12/25 05:16:27;;;;;;;2.47;0.40;;;;;;;;;;4973760;28;20489;-48
2023/12/25 05:18:58;;;;;;;3.20;0.60;;;;;;;;;;4988191;28;20054;-49
2023/12/25 05:21:26;;;;;;;2.60;0.40;;;;;;;;;;4978332;28;20050;-48
2023/12/25 05:23:53;;;;;;;3.58;0.60;;;;;;;;;;4982380;28;20038;-47
2023/12/25 05:26:21;;;;;;;1.67;0.30;;;;;;;;;;4968328;28;20058;-51
2023/12/25 05:28:49;;;;;;;3.05;0.63;;;;;;;;;;4984305;28;20042;-48
2023/12/25 05:31:17;;;;;;;2.85;0.50;;;;;;;;;;4904610;28;20038;-48
2023/12/25 05:33:45;;;;;;;4.53;0.45;;;;;;;;;;4977618;28;20037;-48
2023/12/25 05:36:14;;;;;;;6.55;0.77;;;;;;;;;;4970859;28;20046;-47
2023/12/25 05:38:46;;;;;;;5.37;0.73;;;;;;;;;;4971610;28;20143;-52
2023/12/25 05:41:32;;;;;;;4.30;0.85;;;;;;;;;;4972367;28;20060;-49
2023/12/25 05:44:00;;;;;;;6.53;0.70;;;;;;;;;;4972758;28;20480;-48
2023/12/25 05:46:28;;;;;;;4.25;0.40;;;;;;;;;;4983248;28;20492;-46
2023/12/25 05:48:55;;;;;;;3.78;0.60;;;;;;;;;;4966571;28;20065;-49
2023/12/25 05:51:25;;;;;;;4.97;0.50;;;;;;;;;;4957628;28;20061;-48
2023/12/25 05:53:53;;;;;;;3.05;0.40;;;;;;;;;;4962218;28;20088;-47
2023/12/25 05:56:23;;;;;;;2.28;0.32;;;;;;;;;;4968380;28;20685;-47
2023/12/25 05:58:51;;;;;;;4.55;0.50;;;;;;;;;;4955456;28;20044;-46
2023/12/25 06:01:19;;;;;;;6.00;0.60;;;;;;;;;;4973935;28;20049;-49
2023/12/25 06:03:47;;;;;;;5.43;0.40;;;;;;;;;;4952074;28;20052;-49
2023/12/25 06:06:15;;;;;;;4.82;0.57;;;;;;;;;;4975532;28;20448;-49
2023/12/25 06:08:44;;;;;;;4.45;0.70;;;;;;;;;;4954013;28;20045;-49
2023/12/25 06:11:14;;;;;;;9.38;0.60;;;;;;;;;;4976478;28;20060;-52
2023/12/25 06:13:43;;;;;;;5.07;0.50;;;;;;;;;;4974185;28;20484;-49
2023/12/25 06:16:11;;;;;;;3.50;0.30;;;;;;;;;;4972478;28;20072;-49
2023/12/25 06:18:39;;;;;;;4.22;0.50;;;;;;;;;;4964727;28;20120;-47
2023/12/25 06:21:10;;;;;;;3.40;0.40;;;;;;;;;;4966211;28;20037;-49
2023/12/25 06:23:37;;;;;;;5.13;0.88;;;;;;;;;;4953792;28;20048;-49
2023/12/25 06:26:06;;;;;;;5.57;0.50;;;;;;;;;;4964214;28;20180;-47
2023/12/25 06:28:35;;;;;;;5.77;0.43;;;;;;;;;;4955151;28;20042;-49
2023/12/25 06:31:02;;;;;;;5.63;0.70;;;;;;;;;;4902521;28;20732;-48
2023/12/25 06:33:30;;;;;;;4.72;0.40;;;;;;;;;;4960582;28;20449;-48
2023/12/25 06:35:58;;;;;;;4.55;0.55;;;;;;;;;;4977144;28;20053;-47
2023/12/25 06:38:26;;;;;;;8.52;0.70;;;;;;;;;;4965674;28;20046;-53
2023/12/25 06:40:54;;;;;;;5.23;0.60;;;;;;;;;;4972341;28;20570;-47
2023/12/25 06:43:23;;;;;;;6.72;1.33;;;;;;;;;;4971168;28;20057;-49
2023/12/25 06:45:50;;;;;;;10.90;1.00;;;;;;;;;;4973592;28;20077;-49
2023/12/25 06:48:18;;;;;;;16.25;1.20;;;;;;;;;;4977681;28;20049;-50
2023/12/25 06:50:48;;;;;;;8.05;0.90;;;;;;;;;;4968611;28;20042;-45
2023/12/25 06:53:16;;;;;;;10.53;1.03;;;;;;;;;;4970166;28;20042;-47
2023/12/25 06:55:44;;;;;;;11.65;1.70;;;;;;;;;;4968411;28;20396;-49
2023/12/25 06:58:12;;;;;;;9.73;0.95;;;;;;;;;;4980777;28;20042;-47
2023/12/25 07:00:41;;;;;;;9.73;0.90;;;;;;;;;;4965977;28;20038;-51
2023/12/25 07:03:11;;;;;;;13.60;0.98;;;;;;;;;;4982027;28;20054;-49
2023/12/25 07:05:57;;;;;;;5.53;0.83;;;;;;;;;;4974771;28;20583;-47
2023/12/25 07:08:27;;;;;;;6.05;1.30;;;;;;;;;;4970510;28;20042;-50
2023/12/25 07:10:55;;;;;;;15.48;1.25;;;;;;;;;;4970826;28;20128;-51
2023/12/25 07:13:23;;;;;;;7.03;0.80;;;;;;;;;;4978715;28;20116;-49
2023/12/25 07:15:52;;;;;;;12.52;1.48;;;;;;;;;;4971576;28;20064;-47
2023/12/25 07:18:20;;;;;;;9.90;0.93;;;;;;;;;;4965777;28;20045;-48
2023/12/25 07:20:47;;;;;;;7.78;0.68;;;;;;;;;;4970193;28;20030;-47
2023/12/25 07:23:18;;;;;;;7.68;0.60;;;;;;;;;;4978151;28;20042;-46
2023/12/25 07:25:46;;;;;;;7.40;0.95;;;;;;;;;;4965328;28;20057;-47
2023/12/25 07:28:14;;;;;;;8.55;1.25;;;;;;;;;;4975182;28;20041;-48
2023/12/25 07:30:43;;;;;;;14.23;1.07;;;;;;;;;;4892905;28;20132;-49
2023/12/25 07:33:13;;;;;;;6.65;1.05;;;;;;;;;;4972121;28;20038;-50
2023/12/25 07:35:41;;;;;;;8.73;0.65;;;;;;;;;;4976820;28;20417;-48
2023/12/25 07:38:09;;;;;;;10.85;1.35;;;;;;;;;;4966928;28;20049;-52
2023/12/25 07:40:37;;;;;;;11.48;1.55;;;;;;;;;;4968462;28;20366;-48
2023/12/25 07:43:07;;;;;;;11.43;1.37;;;;;;;;;;4972425;28;20033;-47
2023/12/25 07:45:34;;;;;;;11.10;1.00;;;;;;;;;;4974929;28;20064;-47
2023/12/25 07:48:02;;;;;;;7.03;1.23;;;;;;;;;;4980708;28;20037;-46
2023/12/25 07:50:31;;;;;;;8.30;1.17;;;;;;;;;;4977125;28;20128;-48
2023/12/25 07:52:59;;;;;;;13.55;1.20;;;;;;;;;;4975971;28;20135;-49
2023/12/25 07:55:27;;;;;;;8.47;1.00;;;;;;;;;;4984755;28;20044;-47
2023/12/25 07:57:55;;;;;;;10.98;1.15;;;;;;;;;;4978265;28;20111;-48
2023/12/25 08:00:24;;;;;;;8.98;0.75;;;;;;;;;;4980385;28;20064;-46
2023/12/25 08:02:51;;;;;;;9.20;0.98;;;;;;;;;;4970284;28;20125;-50
2023/12/25 08:05:19;;;;;;;11.18;1.33;;;;;;;;;;4966221;28;20788;-48
2023/12/25 08:07:49;;;;;;;11.37;1.00;;;;;;;;;;4983225;28;20053;-47
2023/12/25 08:10:17;;;;;;;10.70;1.30;;;;;;;;;;4979774;28;20114;-49
2023/12/25 08:12:44;;;;;;;10.90;1.17;;;;;;;;;;4982493;28;20096;-46
2023/12/25 08:15:12;;;;;;;11.07;1.00;;;;;;;;;;4971763;28;21546;-47
2023/12/25 08:17:41;;;;;;;16.73;1.30;;;;;;;;;;4983597;28;20038;-46
2023/12/25 08:20:09;;;;;;;12.23;1.43;;;;;;;;;;4981082;28;20038;-48
2023/12/25 08:22:37;;;;;;;13.88;1.67;;;;;;;;;;4968034;28;20056;-47
2023/12/25 08:25:09;;;;;;;9.13;0.80;;;;;;;;;;4983320;28;20050;-48
2023/12/25 08:27:37;;;;;;;8.98;0.80;;;;;;;;;;4974944;28;20046;-50
2023/12/25 08:30:05;;;;;;;11.07;1.42;;;;;;;;;;4890803;28;20050;-49
2023/12/25 08:32:33;;;;;;;11.30;1.63;;;;;;;;;;4997368;28;20052;-48
2023/12/25 08:35:01;;;;;;;11.93;1.75;;;;;;;;;;4965890;28;20045;-47
2023/12/25 08:37:29;;;;;;;10.00;1.38;;;;;;;;;;4982338;28;20044;-47
2023/12/25 08:39:57;;;;;;;11.25;1.10;;;;;;;;;;4974925;28;20592;-48
2023/12/25 08:42:26;;;;;;;11.93;1.20;;;;;;;;;;4977118;28;20065;-51
2023/12/25 08:44:54;;;;;;;17.63;1.73;;;;;;;;;;4985345;28;20053;-46
2023/12/25 08:47:22;;;;;;;13.93;1.50;;;;;;;;;;4967801;28;20034;-49
2023/12/25 08:49:50;;;;;;;9.32;1.08;;;;;;;;;;4979533;28;20128;-47
2023/12/25 08:52:21;;;;;;;8.73;1.13;;;;;;;;;;4981031;28;20046;-46
2023/12/25 08:54:49;;;;;;;10.73;1.95;;;;;;;;;;4998616;28;20038;-47
2023/12/25 08:57:17;;;;;;;14.17;1.63;;;;;;;;;;4969379;28;20042;-46
2023/12/25 08:59:49;;;;;;;12.25;1.60;;;;;;;;;;4988384;28;20523;-49
2023/12/25 09:02:17;;;;;;;14.85;1.40;;;;;;;;;;4974236;28;20050;-49
2023/12/25 09:04:46;;;;;;;10.75;1.45;;;;;;;;;;4986367;28;20116;-49
2023/12/25 09:07:15;;;;;;;14.60;1.83;;;;;;;;;;4982257;28;20041;-49
2023/12/25 09:09:43;;;;;;;16.60;1.47;;;;;;;;;;4969088;28;20065;-49
2023/12/25 09:12:11;;;;;;;15.98;1.30;;;;;;;;;;4982852;28;20060;-46
2023/12/25 09:14:39;;;;;;;11.27;1.20;;;;;;;;;;4980133;28;20152;-49
2023/12/25 09:17:08;;;;;;;8.80;1.27;;;;;;;;;;4964143;28;20092;-47
2023/12/25 09:19:36;;;;;;;14.02;1.35;;;;;;;;;;4985917;28;20742;-50
2023/12/25 09:22:04;;;;;;;17.43;1.57;;;;;;;;;;4962679;28;20077;-48
2023/12/25 09:24:35;;;;;;;12.60;1.33;;;;;;;;;;4982384;28;20066;-50
2023/12/25 09:27:03;;;;;;;18.17;2.10;;;;;;;;;;4973650;28;20546;-47
2023/12/25 09:29:31;;;;;;;12.85;1.60;;;;;;;;;;4943105;28;20038;-47
2023/12/25 09:31:59;;;;;;;11.57;2.03;;;;;;;;;;4939256;28;20053;-50
2023/12/25 09:34:28;;;;;;;17.20;1.23;;;;;;;;;;4984135;28;20116;-46
2023/12/25 09:37:12;;;;;;;9.55;1.70;;;;;;;;;;4983766;28;20049;-49
2023/12/25 09:39:43;;;;;;;12.18;0.98;;;;;;;;;;4968783;28;20038;-48
2023/12/25 09:42:12;;;;;;;10.57;1.05;;;;;;;;;;4998596;28;20806;-49
2023/12/25 09:44:40;;;;;;;14.07;1.10;;;;;;;;;;4980718;28;20100;-49
2023/12/25 09:47:08;;;;;;;16.77;1.00;;;;;;;;;;4976547;28;20037;-48
2023/12/25 09:49:39;;;;;;;14.25;1.20;;;;;;;;;;4978512;28;20500;-48
2023/12/25 09:52:07;;;;;;;11.43;1.08;;;;;;;;;;4969626;28;20045;-47
2023/12/25 09:54:34;;;;;;;11.57;1.10;;;;;;;;;;4966104;28;20042;-47
2023/12/25 09:57:01;;;;;;;14.50;1.23;;;;;;;;;;4988779;28;20045;-48
2023/12/25 09:59:29;;;;;;;14.83;1.57;;;;;;;;;;4971099;28;20423;-48
2023/12/25 10:01:58;;;;;;;15.63;1.27;;;;;;;;;;4970340;28;20796;-52
2023/12/25 10:04:29;;;;;;;17.13;1.63;;;;;;;;;;4981874;28;20042;-47
2023/12/25 10:06:58;;;;;;;9.55;1.40;;;;;;;;;;4970851;28;20049;-49
2023/12/25 10:09:26;;;;;;;13.18;1.08;;;;;;;;;;4981624;28;20034;-49
2023/12/25 10:11:54;;;;;;;9.90;1.00;;;;;;;;;;4962832;28;20046;-51
2023/12/25 10:14:22;;;;;;;14.68;1.58;;;;;;;;;;4977606;28;20033;-47
2023/12/25 10:16:51;;;;;;;11.27;1.13;;;;;;;;;;4959815;28;20050;-48
2023/12/25 10:19:18;;;;;;;13.63;2.20;;;;;;;;;;4980087;28;20037;-52
2023/12/25 10:21:46;;;;;;;14.00;1.88;;;;;;;;;;4965515;28;20099;-49
2023/12/25 10:24:16;;;;;;;15.13;1.30;;;;;;;;;;4980748;28;20041;-48
2023/12/25 10:26:44;;;;;;;13.00;1.60;;;;;;;;;;4963240;28;20042;-49
2023/12/25 10:29:13;;;;;;;13.68;1.40;;;;;;;;;;4947146;28;20046;-48
2023/12/25 10:31:43;;;;;;;12.35;1.38;;;;;;;;;;4927153;28;20070;-50
2023/12/25 10:34:12;;;;;;;13.35;1.50;;;;;;;;;;4974845;28;20079;-46
2023/12/25 10:36:40;;;;;;;14.93;1.70;;;;;;;;;;4969564;28;20054;-51
2023/12/25 10:39:08;;;;;;;12.93;1.85;;;;;;;;;;4972879;28;20053;-47
2023/12/25 10:41:37;;;;;;;10.38;1.20;;;;;;;;;;4973490;28;20049;-46
2023/12/25 10:44:05;;;;;;;13.30;1.75;;;;;;;;;;4969452;28;20104;-47
2023/12/25 10:46:36;;;;;;;14.52;1.67;;;;;;;;;;4973078;28;20046;-48
2023/12/25 10:49:05;;;;;;;11.70;1.10;;;;;;;;;;4966995;28;20141;-47
2023/12/25 10:51:41;;;;;;;12.93;1.63;;;;;;;;;;4966453;28;20042;-49
2023/12/25 10:54:10;;;;;;;12.05;1.50;;;;;;;;;;4960569;28;20050;-47
2023/12/25 10:56:40;;;;;;;10.55;1.27;;;;;;;;;;4983994;28;20056;-46
2023/12/25 10:59:11;;;;;;;13.35;1.58;;;;;;;;;;4964134;28;20537;-50
2023/12/25 11:01:40;;;;;;;12.47;1.20;;;;;;;;;;4973697;28;20112;-47
2023/12/25 11:04:08;;;;;;;14.57;1.42;;;;;;;;;;4979944;28;20038;-48
2023/12/25 11:06:36;;;;;;;8.45;1.00;;;;;;;;;;4965328;28;20555;-47
2023/12/25 11:09:05;;;;;;;8.77;0.90;;;;;;;;;;4976089;28;20038;-47
2023/12/25 11:11:33;;;;;;;12.70;1.02;;;;;;;;;;4960610;28;20490;-47
2023/12/25 11:14:03;;;;;;;11.13;1.20;;;;;;;;;;4980476;28;20042;-49
2023/12/25 11:16:31;;;;;;;13.45;0.80;;;;;;;;;;4967067;28;20035;-48
2023/12/25 11:19:00;;;;;;;12.02;1.48;;;;;;;;;;4979609;28;20042;-46
2023/12/25 11:21:32;;;;;;;8.85;1.10;;;;;;;;;;4976629;28;20077;-46
2023/12/25 11:24:00;;;;;;;7.85;1.05;;;;;;;;;;4961775;28;20449;-47
2023/12/25 11:26:28;;;;;;;7.33;0.80;;;;;;;;;;4974670;28;20048;-48
2023/12/25 11:29:00;;;;;;;8.82;1.20;;;;;;;;;;4952308;28;20535;-48
2023/12/25 11:31:30;;;;;;;13.25;1.25;;;;;;;;;;4953247;28;20049;-50
2023/12/25 11:34:16;;;;;;;8.02;0.65;;;;;;;;;;4971003;28;20038;-49
2023/12/25 11:36:45;;;;;;;9.40;0.77;;;;;;;;;;4972241;28;20038;-50
2023/12/25 11:39:13;;;;;;;7.97;0.70;;;;;;;;;;4983970;28;20038;-47
2023/12/25 11:41:41;;;;;;;9.69;1.30;;;;;;;;;;4285444;28;10000700;-49
2023/12/25 11:44:08;;;;;;;8.73;1.10;;;;;;;;;;4968849;28;20057;-46
2023/12/25 11:46:38;;;;;;;10.47;0.93;;;;;;;;;;4958052;28;20599;-51
2023/12/25 11:49:13;;;;;;;5.18;0.82;;;;;;;;;;4977661;28;20487;-49
2023/12/25 11:51:59;;;;;;;6.50;0.85;;;;;;;;;;4975658;28;20045;-47
2023/12/25 11:54:28;;;;;;;9.52;1.00;;;;;;;;;;4959833;28;20614;-49
2023/12/25 11:56:57;;;;;;;7.22;0.93;;;;;;;;;;4969228;28;20050;-47
2023/12/25 11:59:26;;;;;;;7.37;0.83;;;;;;;;;;4962649;28;20046;-47
2023/12/25 12:01:55;;;;;;;7.05;0.80;;;;;;;;;;4969634;28;21292;-48
2023/12/25 12:04:23;;;;;;;9.32;0.90;;;;;;;;;;4972677;28;20367;-48
2023/12/25 12:06:51;;;;;;;9.35;0.70;;;;;;;;;;4958735;28;20580;-47
2023/12/25 12:09:19;;;;;;;10.07;0.93;;;;;;;;;;4969962;28;20050;-47
2023/12/25 12:11:47;;;;;;;6.47;0.73;;;;;;;;;;4955673;28;20050;-48
2023/12/25 12:14:15;;;;;;;8.63;0.75;;;;;;;;;;4993800;28;20871;-48
2023/12/25 12:16:43;;;;;;;8.98;1.08;;;;;;;;;;4959098;28;20584;-47
2023/12/25 12:19:13;;;;;;;9.38;1.40;;;;;;;;;;4974974;28;20545;-47
2023/12/25 12:21:42;;;;;;;8.77;0.70;;;;;;;;;;4981680;28;20052;-47
2023/12/25 12:24:23;;;;;;;7.30;0.90;;;;;;;;;;4971089;28;20093;-47
2023/12/25 12:26:51;;;;;;;10.27;1.00;;;;;;;;;;4971107;28;20065;-48
2023/12/25 12:29:18;;;;;;;6.90;1.17;;;;;;;;;;4941678;28;20826;-48
2023/12/25 12:31:46;;;;;;;8.45;0.73;;;;;;;;;;4931442;28;20042;-46
2023/12/25 12:34:16;;;;;;;8.55;1.17;;;;;;;;;;4985012;28;20276;-46
2023/12/25 12:36:43;;;;;;;8.27;0.97;;;;;;;;;;4970653;28;20589;-49
2023/12/25 12:39:11;;;;;;;11.02;0.93;;;;;;;;;;4982088;28;20064;-48
2023/12/25 12:41:39;;;;;;;8.82;1.27;;;;;;;;;;4964586;28;20120;-51
2023/12/25 12:44:07;;;;;;;12.38;0.82;;;;;;;;;;4982062;28;20045;-48
2023/12/25 12:46:35;;;;;;;8.10;1.00;;;;;;;;;;4969862;28;20043;-49
2023/12/25 12:49:03;;;;;;;13.63;1.27;;;;;;;;;;4975178;28;20042;-48
2023/12/25 12:51:32;;;;;;;6.30;0.50;;;;;;;;;;4966702;28;20048;-48
2023/12/25 12:54:00;;;;;;;8.32;0.88;;;;;;;;;;4973805;28;20038;-48
2023/12/25 12:56:29;;;;;;;9.02;1.08;;;;;;;;;;4976463;28;20073;-47
2023/12/25 12:58:57;;;;;;;10.48;0.80;;;;;;;;;;4970095;28;20076;-47
2023/12/25 13:01:25;;;;;;;7.60;0.53;;;;;;;;;;4992009;28;20052;-50
2023/12/25 13:03:52;;;;;;;6.30;0.68;;;;;;;;;;4956242;28;20129;-46
2023/12/25 13:06:21;;;;;;;7.75;0.95;;;;;;;;;;4980639;28;20042;-48
2023/12/25 13:08:53;;;;;;;7.05;0.88;;;;;;;;;;4976930;28;20062;-47
2023/12/25 13:11:22;;;;;;;8.70;1.42;;;;;;;;;;4970300;28;20037;-46
2023/12/25 13:13:50;;;;;;;6.10;0.97;;;;;;;;;;4980400;28;20434;-47
2023/12/25 13:16:19;;;;;;;9.95;0.90;;;;;;;;;;4976628;28;20057;-47
2023/12/25 13:18:47;;;;;;;9.90;0.88;;;;;;;;;;4969072;28;20307;-48
2023/12/25 13:21:15;;;;;;;5.15;0.60;;;;;;;;;;4980114;28;20492;-49
2023/12/25 13:23:43;;;;;;;4.07;0.47;;;;;;;;;;4970797;28;20057;-47
2023/12/25 13:26:13;;;;;;;7.70;0.73;;;;;;;;;;4982947;28;20042;-47
2023/12/25 13:28:41;;;;;;;5.28;0.70;;;;;;;;;;4968523;28;20484;-49
2023/12/25 13:31:09;;;;;;;7.05;0.60;;;;;;;;;;4904833;28;20038;-46
2023/12/25 13:33:39;;;;;;;6.05;1.23;;;;;;;;;;4968024;28;20703;-50
2023/12/25 13:36:08;;;;;;;5.43;1.00;;;;;;;;;;4975481;28;20042;-46
2023/12/25 13:38:36;;;;;;;5.47;1.07;;;;;;;;;;4976765;28;20500;-48
2023/12/25 13:41:04;;;;;;;7.47;0.98;;;;;;;;;;4973924;28;20044;-49
2023/12/25 13:43:33;;;;;;;8.20;1.75;;;;;;;;;;4965306;28;20038;-48
2023/12/25 13:46:01;;;;;;;11.73;0.95;;;;;;;;;;4975755;28;20037;-46
2023/12/25 13:48:28;;;;;;;8.60;0.70;;;;;;;;;;4967303;28;20026;-47
2023/12/25 13:50:57;;;;;;;6.13;1.10;;;;;;;;;;4962179;28;20045;-48
2023/12/25 13:53:24;;;;;;;4.00;0.38;;;;;;;;;;4976472;28;20131;-46
2023/12/25 13:55:53;;;;;;;6.28;0.47;;;;;;;;;;4967051;28;20588;-47
2023/12/25 13:58:21;;;;;;;6.45;0.47;;;;;;;;;;4973475;28;20037;-50
2023/12/25 14:00:50;;;;;;;4.45;0.90;;;;;;;;;;4974863;28;20037;-48
2023/12/25 14:03:18;;;;;;;4.27;0.70;;;;;;;;;;4960982;28;20065;-47
2023/12/25 14:05:46;;;;;;;4.57;0.40;;;;;;;;;;4974035;28;20042;-46
2023/12/25 14:08:14;;;;;;;3.92;0.43;;;;;;;;;;4968580;28;20070;-45
2023/12/25 14:10:42;;;;;;;3.10;0.30;;;;;;;;;;4975978;28;20046;-49
2023/12/25 14:13:10;;;;;;;7.30;0.70;;;;;;;;;;4967153;28;20474;-49
2023/12/25 14:15:38;;;;;;;5.87;0.70;;;;;;;;;;4973901;28;20041;-49
2023/12/25 14:18:08;;;;;;;4.65;0.50;;;;;;;;;;4965755;28;20708;-47
2023/12/25 14:20:36;;;;;;;3.42;0.70;;;;;;;;;;4978332;28;20137;-47
2023/12/25 14:23:05;;;;;;;4.00;0.40;;;;;;;;;;4962576;28;20038;-48
2023/12/25 14:25:33;;;;;;;4.78;0.60;;;;;;;;;;4979734;28;20488;-47
2023/12/25 14:28:01;;;;;;;4.03;0.70;;;;;;;;;;4967354;28;20042;-47
2023/12/25 14:30:31;;;;;;;6.25;0.63;;;;;;;;;;4893918;28;20120;-47
2023/12/25 14:33:19;;;;;;;4.07;0.60;;;;;;;;;;4969618;28;20049;-46
2023/12/25 14:35:49;;;;;;;4.28;0.60;;;;;;;;;;4972657;28;20052;-49
2023/12/25 14:38:17;;;;;;;6.32;0.70;;;;;;;;;;4986206;28;20050;-46
2023/12/25 14:40:45;;;;;;;4.90;0.80;;;;;;;;;;4970249;28;20070;-48
2023/12/25 14:43:13;;;;;;;5.13;0.80;;;;;;;;;;4983990;28;20045;-48
2023/12/25 14:45:40;;;;;;;7.05;0.80;;;;;;;;;;4986107;28;20128;-47
2023/12/25 14:48:08;;;;;;;4.20;0.60;;;;;;;;;;4981958;28;20045;-47
2023/12/25 14:50:37;;;;;;;9.10;2.22;;;;;;;;;;4992580;28;20041;-46